sensor_id;sensor_type;location;lat;lon;timestamp;P1;durP1;ratioP1;P2;durP2;ratioP2
47413;SDS011;33163;0.000;0.000;2022-09-17T00:00:45;7.93;;;1.88;;
47413;SDS011;33163;0.000;0.000;2022-09-17T00:03:13;3.92;;;1.15;;
47413;SDS011;33163;0.000;0.000;2022-09-17T00:05:40;5.93;;;1.70;;
47413;SDS011;33163;0.000;0.000;2022-09-17T00:08:08;10.50;;;1.73;;
47413;SDS011;33163;0.000;0.000;2022-09-17T00:10:38;5.00;;;1.15;;
47413;SDS011;33163;0.000;0.000;2022-09-17T00:13:06;9.15;;;2.35;;
47413;SDS011;33163;0.000;0.000;2022-09-17T00:15:38;5.28;;;1.60;;
47413;SDS011;33163;0.000;0.000;2022-09-17T00:18:07;5.05;;;1.20;;
47413;SDS011;33163;0.000;0.000;2022-09-17T00:20:37;4.20;;;1.23;;
47413;SDS011;33163;0.000;0.000;2022-09-17T00:23:04;5.43;;;1.50;;
47413;SDS011;33163;0.000;0.000;2022-09-17T00:25:32;5.28;;;1.20;;
47413;SDS011;33163;0.000;0.000;2022-09-17T00:27:59;6.97;;;1.50;;
47413;SDS011;33163;0.000;0.000;2022-09-17T00:30:26;7.03;;;1.55;;
47413;SDS011;33163;0.000;0.000;2022-09-17T00:32:53;4.15;;;1.10;;
47413;SDS011;33163;0.000;0.000;2022-09-17T00:35:23;4.10;;;1.13;;
47413;SDS011;33163;0.000;0.000;2022-09-17T00:37:50;6.32;;;1.85;;
47413;SDS011;33163;0.000;0.000;2022-09-17T00:40:17;5.93;;;1.20;;
47413;SDS011;33163;0.000;0.000;2022-09-17T00:42:44;4.45;;;1.48;;
47413;SDS011;33163;0.000;0.000;2022-09-17T00:45:11;3.60;;;1.30;;
47413;SDS011;33163;0.000;0.000;2022-09-17T00:47:39;7.70;;;1.67;;
47413;SDS011;33163;0.000;0.000;2022-09-17T00:50:11;7.03;;;1.50;;
47413;SDS011;33163;0.000;0.000;2022-09-17T00:52:42;6.93;;;2.38;;
47413;SDS011;33163;0.000;0.000;2022-09-17T00:55:12;5.47;;;1.05;;
47413;SDS011;33163;0.000;0.000;2022-09-17T00:57:42;6.65;;;0.90;;
47413;SDS011;33163;0.000;0.000;2022-09-17T01:00:11;6.97;;;1.42;;
47413;SDS011;33163;0.000;0.000;2022-09-17T01:02:39;8.65;;;1.23;;
47413;SDS011;33163;0.000;0.000;2022-09-17T01:05:07;4.88;;;1.38;;
47413;SDS011;33163;0.000;0.000;2022-09-17T01:07:55;7.75;;;1.48;;
47413;SDS011;33163;0.000;0.000;2022-09-17T01:10:37;5.43;;;1.67;;
47413;SDS011;33163;0.000;0.000;2022-09-17T01:13:16;10.05;;;1.70;;
47413;SDS011;33163;0.000;0.000;2022-09-17T01:15:54;3.72;;;1.23;;
47413;SDS011;33163;0.000;0.000;2022-09-17T01:18:29;4.25;;;1.38;;
47413;SDS011;33163;0.000;0.000;2022-09-17T01:21:13;7.20;;;1.60;;
47413;SDS011;33163;0.000;0.000;2022-09-17T01:24:04;5.90;;;1.95;;
47413;SDS011;33163;0.000;0.000;2022-09-17T01:29:48;5.65;;;1.67;;
47413;SDS011;33163;0.000;0.000;2022-09-17T01:32:30;3.22;;;1.15;;
47413;SDS011;33163;0.000;0.000;2022-09-17T01:35:04;10.05;;;1.63;;
47413;SDS011;33163;0.000;0.000;2022-09-17T01:37:36;6.28;;;1.50;;
47413;SDS011;33163;0.000;0.000;2022-09-17T01:40:11;3.60;;;1.40;;
47413;SDS011;33163;0.000;0.000;2022-09-17T01:42:46;9.40;;;2.25;;
47413;SDS011;33163;0.000;0.000;2022-09-17T01:47:50;3.00;;;1.10;;
47413;SDS011;33163;0.000;0.000;2022-09-17T01:50:20;8.38;;;2.00;;
47413;SDS011;33163;0.000;0.000;2022-09-17T01:52:49;6.00;;;1.65;;
47413;SDS011;33163;0.000;0.000;2022-09-17T01:55:20;4.90;;;1.50;;
47413;SDS011;33163;0.000;0.000;2022-09-17T01:57:52;3.55;;;1.63;;
47413;SDS011;33163;0.000;0.000;2022-09-17T02:00:22;8.85;;;1.63;;
47413;SDS011;33163;0.000;0.000;2022-09-17T02:02:51;7.03;;;1.60;;
47413;SDS011;33163;0.000;0.000;2022-09-17T02:05:23;4.30;;;1.70;;
47413;SDS011;33163;0.000;0.000;2022-09-17T02:07:55;2.53;;;0.90;;
47413;SDS011;33163;0.000;0.000;2022-09-17T02:10:24;6.78;;;1.70;;
47413;SDS011;33163;0.000;0.000;2022-09-17T02:12:55;9.02;;;2.00;;
47413;SDS011;33163;0.000;0.000;2022-09-17T02:15:28;7.80;;;1.60;;
47413;SDS011;33163;0.000;0.000;2022-09-17T02:18:02;7.78;;;1.48;;
47413;SDS011;33163;0.000;0.000;2022-09-17T02:20:34;8.55;;;1.90;;
47413;SDS011;33163;0.000;0.000;2022-09-17T02:23:07;3.33;;;1.30;;
47413;SDS011;33163;0.000;0.000;2022-09-17T02:25:39;8.65;;;1.67;;
47413;SDS011;33163;0.000;0.000;2022-09-17T02:28:10;3.42;;;1.58;;
47413;SDS011;33163;0.000;0.000;2022-09-17T02:30:44;4.50;;;1.30;;
47413;SDS011;33163;0.000;0.000;2022-09-17T02:33:13;3.70;;;1.15;;
47413;SDS011;33163;0.000;0.000;2022-09-17T02:35:40;6.93;;;1.30;;
47413;SDS011;33163;0.000;0.000;2022-09-17T02:38:08;5.82;;;1.30;;
47413;SDS011;33163;0.000;0.000;2022-09-17T02:40:38;4.85;;;1.60;;
47413;SDS011;33163;0.000;0.000;2022-09-17T02:43:13;8.15;;;1.75;;
47413;SDS011;33163;0.000;0.000;2022-09-17T02:45:47;5.90;;;1.42;;
47413;SDS011;33163;0.000;0.000;2022-09-17T02:48:31;4.28;;;1.45;;
47413;SDS011;33163;0.000;0.000;2022-09-17T02:51:22;7.05;;;1.55;;
47413;SDS011;33163;0.000;0.000;2022-09-17T02:53:59;5.22;;;1.30;;
47413;SDS011;33163;0.000;0.000;2022-09-17T02:56:39;6.93;;;1.58;;
47413;SDS011;33163;0.000;0.000;2022-09-17T02:59:13;5.53;;;1.20;;
47413;SDS011;33163;0.000;0.000;2022-09-17T03:01:44;4.72;;;1.27;;
47413;SDS011;33163;0.000;0.000;2022-09-17T03:04:17;6.53;;;1.58;;
47413;SDS011;33163;0.000;0.000;2022-09-17T03:06:47;6.53;;;1.48;;
47413;SDS011;33163;0.000;0.000;2022-09-17T03:09:14;4.88;;;1.40;;
47413;SDS011;33163;0.000;0.000;2022-09-17T03:11:41;6.25;;;1.35;;
47413;SDS011;33163;0.000;0.000;2022-09-17T03:14:08;6.47;;;1.40;;
47413;SDS011;33163;0.000;0.000;2022-09-17T03:16:35;5.13;;;1.35;;
47413;SDS011;33163;0.000;0.000;2022-09-17T03:19:01;6.95;;;1.50;;
47413;SDS011;33163;0.000;0.000;2022-09-17T03:21:30;4.88;;;1.50;;
47413;SDS011;33163;0.000;0.000;2022-09-17T03:23:57;10.18;;;1.95;;
47413;SDS011;33163;0.000;0.000;2022-09-17T03:26:24;7.53;;;1.48;;
47413;SDS011;33163;0.000;0.000;2022-09-17T03:28:51;4.85;;;1.40;;
47413;SDS011;33163;0.000;0.000;2022-09-17T03:31:17;6.20;;;1.40;;
47413;SDS011;33163;0.000;0.000;2022-09-17T03:33:44;4.78;;;1.77;;
47413;SDS011;33163;0.000;0.000;2022-09-17T03:36:11;5.97;;;1.38;;
47413;SDS011;33163;0.000;0.000;2022-09-17T03:38:39;7.55;;;1.67;;
47413;SDS011;33163;0.000;0.000;2022-09-17T03:41:06;5.60;;;1.38;;
47413;SDS011;33163;0.000;0.000;2022-09-17T03:43:33;3.88;;;1.58;;
47413;SDS011;33163;0.000;0.000;2022-09-17T03:45:59;5.22;;;1.60;;
47413;SDS011;33163;0.000;0.000;2022-09-17T03:48:26;6.85;;;1.55;;
47413;SDS011;33163;0.000;0.000;2022-09-17T03:50:54;5.70;;;1.17;;
47413;SDS011;33163;0.000;0.000;2022-09-17T03:53:21;5.15;;;1.60;;
47413;SDS011;33163;0.000;0.000;2022-09-17T03:55:49;6.63;;;1.58;;
47413;SDS011;33163;0.000;0.000;2022-09-17T03:58:15;3.88;;;1.33;;
47413;SDS011;33163;0.000;0.000;2022-09-17T04:00:42;6.82;;;1.30;;
47413;SDS011;33163;0.000;0.000;2022-09-17T04:03:09;6.72;;;1.35;;
47413;SDS011;33163;0.000;0.000;2022-09-17T04:05:36;4.50;;;1.30;;
47413;SDS011;33163;0.000;0.000;2022-09-17T04:08:03;4.90;;;1.63;;
47413;SDS011;33163;0.000;0.000;2022-09-17T04:10:30;9.45;;;1.35;;
47413;SDS011;33163;0.000;0.000;2022-09-17T04:12:58;5.30;;;1.20;;
47413;SDS011;33163;0.000;0.000;2022-09-17T04:15:27;2.22;;;0.98;;
47413;SDS011;33163;0.000;0.000;2022-09-17T04:17:54;4.88;;;1.23;;
47413;SDS011;33163;0.000;0.000;2022-09-17T04:20:22;4.93;;;1.17;;
47413;SDS011;33163;0.000;0.000;2022-09-17T04:22:50;4.53;;;1.15;;
47413;SDS011;33163;0.000;0.000;2022-09-17T04:25:17;3.20;;;1.05;;
47413;SDS011;33163;0.000;0.000;2022-09-17T04:27:44;2.38;;;1.10;;
47413;SDS011;33163;0.000;0.000;2022-09-17T04:30:13;5.07;;;1.65;;
47413;SDS011;33163;0.000;0.000;2022-09-17T04:32:40;4.80;;;1.23;;
47413;SDS011;33163;0.000;0.000;2022-09-17T04:35:09;6.75;;;1.70;;
47413;SDS011;33163;0.000;0.000;2022-09-17T04:37:35;3.85;;;0.90;;
47413;SDS011;33163;0.000;0.000;2022-09-17T04:40:03;2.85;;;1.08;;
47413;SDS011;33163;0.000;0.000;2022-09-17T04:42:30;4.63;;;1.30;;
47413;SDS011;33163;0.000;0.000;2022-09-17T04:44:57;3.15;;;1.25;;
47413;SDS011;33163;0.000;0.000;2022-09-17T04:47:25;3.83;;;0.93;;
47413;SDS011;33163;0.000;0.000;2022-09-17T04:49:52;7.50;;;1.48;;
47413;SDS011;33163;0.000;0.000;2022-09-17T04:52:19;3.53;;;0.90;;
47413;SDS011;33163;0.000;0.000;2022-09-17T04:54:45;3.03;;;1.23;;
47413;SDS011;33163;0.000;0.000;2022-09-17T04:57:12;5.15;;;1.20;;
47413;SDS011;33163;0.000;0.000;2022-09-17T04:59:39;3.00;;;0.85;;
47413;SDS011;33163;0.000;0.000;2022-09-17T05:02:06;6.38;;;1.60;;
47413;SDS011;33163;0.000;0.000;2022-09-17T05:04:34;3.75;;;1.33;;
47413;SDS011;33163;0.000;0.000;2022-09-17T05:07:00;3.33;;;1.08;;
47413;SDS011;33163;0.000;0.000;2022-09-17T05:09:27;5.05;;;1.50;;
47413;SDS011;33163;0.000;0.000;2022-09-17T05:11:54;4.25;;;1.13;;
47413;SDS011;33163;0.000;0.000;2022-09-17T05:14:21;3.97;;;1.42;;
47413;SDS011;33163;0.000;0.000;2022-09-17T05:16:47;3.55;;;1.00;;
47413;SDS011;33163;0.000;0.000;2022-09-17T05:19:14;2.20;;;1.00;;
47413;SDS011;33163;0.000;0.000;2022-09-17T05:21:42;3.40;;;1.25;;
47413;SDS011;33163;0.000;0.000;2022-09-17T05:24:09;4.63;;;1.00;;
47413;SDS011;33163;0.000;0.000;2022-09-17T05:26:36;5.80;;;1.33;;
47413;SDS011;33163;0.000;0.000;2022-09-17T05:29:02;4.15;;;1.15;;
47413;SDS011;33163;0.000;0.000;2022-09-17T05:31:29;3.70;;;1.10;;
47413;SDS011;33163;0.000;0.000;2022-09-17T05:33:56;3.97;;;1.45;;
47413;SDS011;33163;0.000;0.000;2022-09-17T05:36:23;4.28;;;1.00;;
47413;SDS011;33163;0.000;0.000;2022-09-17T05:38:51;1.88;;;1.00;;
47413;SDS011;33163;0.000;0.000;2022-09-17T05:41:18;4.97;;;0.95;;
47413;SDS011;33163;0.000;0.000;2022-09-17T05:43:45;2.33;;;0.75;;
47413;SDS011;33163;0.000;0.000;2022-09-17T05:46:12;5.68;;;1.23;;
47413;SDS011;33163;0.000;0.000;2022-09-17T05:48:38;3.15;;;1.10;;
47413;SDS011;33163;0.000;0.000;2022-09-17T05:51:05;3.65;;;1.08;;
47413;SDS011;33163;0.000;0.000;2022-09-17T05:53:32;3.75;;;1.08;;
47413;SDS011;33163;0.000;0.000;2022-09-17T05:56:00;4.65;;;1.23;;
47413;SDS011;33163;0.000;0.000;2022-09-17T05:58:27;3.72;;;1.23;;
47413;SDS011;33163;0.000;0.000;2022-09-17T06:00:53;3.60;;;1.13;;
47413;SDS011;33163;0.000;0.000;2022-09-17T06:03:20;3.05;;;1.10;;
47413;SDS011;33163;0.000;0.000;2022-09-17T06:05:51;4.05;;;1.30;;
47413;SDS011;33163;0.000;0.000;2022-09-17T06:08:19;4.47;;;0.90;;
47413;SDS011;33163;0.000;0.000;2022-09-17T06:10:46;6.57;;;0.90;;
47413;SDS011;33163;0.000;0.000;2022-09-17T06:13:14;1.63;;;1.00;;
47413;SDS011;33163;0.000;0.000;2022-09-17T06:15:41;6.10;;;0.90;;
47413;SDS011;33163;0.000;0.000;2022-09-17T06:18:08;4.78;;;1.30;;
47413;SDS011;33163;0.000;0.000;2022-09-17T06:20:34;4.93;;;1.25;;
47413;SDS011;33163;0.000;0.000;2022-09-17T06:23:01;4.22;;;1.00;;
47413;SDS011;33163;0.000;0.000;2022-09-17T06:25:28;3.50;;;1.00;;
47413;SDS011;33163;0.000;0.000;2022-09-17T06:27:55;2.80;;;0.77;;
47413;SDS011;33163;0.000;0.000;2022-09-17T06:30:24;2.55;;;0.80;;
47413;SDS011;33163;0.000;0.000;2022-09-17T06:32:50;4.57;;;1.30;;
47413;SDS011;33163;0.000;0.000;2022-09-17T06:35:17;5.50;;;1.10;;
47413;SDS011;33163;0.000;0.000;2022-09-17T06:37:44;4.28;;;0.80;;
47413;SDS011;33163;0.000;0.000;2022-09-17T06:40:11;4.60;;;1.17;;
47413;SDS011;33163;0.000;0.000;2022-09-17T06:42:38;2.53;;;0.80;;
47413;SDS011;33163;0.000;0.000;2022-09-17T06:45:05;6.10;;;1.05;;
47413;SDS011;33163;0.000;0.000;2022-09-17T06:47:33;3.70;;;1.10;;
47413;SDS011;33163;0.000;0.000;2022-09-17T06:50:00;2.80;;;0.88;;
47413;SDS011;33163;0.000;0.000;2022-09-17T06:52:27;3.85;;;1.20;;
47413;SDS011;33163;0.000;0.000;2022-09-17T06:54:53;2.55;;;1.33;;
47413;SDS011;33163;0.000;0.000;2022-09-17T06:57:20;6.63;;;1.30;;
47413;SDS011;33163;0.000;0.000;2022-09-17T06:59:47;3.67;;;1.15;;
47413;SDS011;33163;0.000;0.000;2022-09-17T07:02:14;3.30;;;0.80;;
47413;SDS011;33163;0.000;0.000;2022-09-17T07:04:42;5.55;;;1.13;;
47413;SDS011;33163;0.000;0.000;2022-09-17T07:07:09;5.43;;;1.10;;
47413;SDS011;33163;0.000;0.000;2022-09-17T07:09:36;2.72;;;1.05;;
47413;SDS011;33163;0.000;0.000;2022-09-17T07:12:05;1.75;;;0.95;;
47413;SDS011;33163;0.000;0.000;2022-09-17T07:14:33;6.28;;;1.17;;
47413;SDS011;33163;0.000;0.000;2022-09-17T07:17:00;3.33;;;1.33;;
47413;SDS011;33163;0.000;0.000;2022-09-17T07:19:27;3.33;;;1.00;;
47413;SDS011;33163;0.000;0.000;2022-09-17T07:21:55;5.70;;;1.23;;
47413;SDS011;33163;0.000;0.000;2022-09-17T07:24:22;3.53;;;1.17;;
47413;SDS011;33163;0.000;0.000;2022-09-17T07:26:49;4.32;;;1.30;;
47413;SDS011;33163;0.000;0.000;2022-09-17T07:29:15;3.42;;;1.30;;
47413;SDS011;33163;0.000;0.000;2022-09-17T07:31:42;3.65;;;0.95;;
47413;SDS011;33163;0.000;0.000;2022-09-17T07:34:09;4.30;;;1.08;;
47413;SDS011;33163;0.000;0.000;2022-09-17T07:36:36;5.03;;;1.10;;
47413;SDS011;33163;0.000;0.000;2022-09-17T07:39:04;5.38;;;1.33;;
47413;SDS011;33163;0.000;0.000;2022-09-17T07:41:31;3.50;;;0.77;;
47413;SDS011;33163;0.000;0.000;2022-09-17T07:43:58;3.67;;;1.10;;
47413;SDS011;33163;0.000;0.000;2022-09-17T07:46:26;11.85;;;2.00;;
47413;SDS011;33163;0.000;0.000;2022-09-17T07:48:54;6.30;;;1.10;;
47413;SDS011;33163;0.000;0.000;2022-09-17T07:51:21;6.50;;;1.17;;
47413;SDS011;33163;0.000;0.000;2022-09-17T07:53:49;8.35;;;1.50;;
47413;SDS011;33163;0.000;0.000;2022-09-17T07:56:17;5.55;;;1.55;;
47413;SDS011;33163;0.000;0.000;2022-09-17T07:58:44;9.05;;;1.30;;
47413;SDS011;33163;0.000;0.000;2022-09-17T08:01:12;6.28;;;1.10;;
47413;SDS011;33163;0.000;0.000;2022-09-17T08:03:40;5.70;;;1.23;;
47413;SDS011;33163;0.000;0.000;2022-09-17T08:06:08;3.00;;;0.82;;
47413;SDS011;33163;0.000;0.000;2022-09-17T08:08:37;3.88;;;1.30;;
47413;SDS011;33163;0.000;0.000;2022-09-17T08:11:05;5.05;;;1.35;;
47413;SDS011;33163;0.000;0.000;2022-09-17T08:13:34;5.43;;;1.17;;
47413;SDS011;33163;0.000;0.000;2022-09-17T08:16:03;5.65;;;1.30;;
47413;SDS011;33163;0.000;0.000;2022-09-17T08:18:31;9.48;;;1.23;;
47413;SDS011;33163;0.000;0.000;2022-09-17T08:21:00;9.13;;;1.33;;
47413;SDS011;33163;0.000;0.000;2022-09-17T08:23:28;2.58;;;0.90;;
47413;SDS011;33163;0.000;0.000;2022-09-17T08:25:56;6.93;;;0.98;;
47413;SDS011;33163;0.000;0.000;2022-09-17T08:28:24;6.63;;;1.60;;
47413;SDS011;33163;0.000;0.000;2022-09-17T08:30:58;3.03;;;0.80;;
47413;SDS011;33163;0.000;0.000;2022-09-17T08:33:25;8.05;;;1.20;;
47413;SDS011;33163;0.000;0.000;2022-09-17T08:35:52;4.63;;;1.38;;
47413;SDS011;33163;0.000;0.000;2022-09-17T08:38:23;4.30;;;1.20;;
47413;SDS011;33163;0.000;0.000;2022-09-17T08:40:53;5.82;;;1.20;;
47413;SDS011;33163;0.000;0.000;2022-09-17T08:43:27;3.28;;;1.20;;
47413;SDS011;33163;0.000;0.000;2022-09-17T08:46:00;3.80;;;0.93;;
47413;SDS011;33163;0.000;0.000;2022-09-17T08:48:29;6.93;;;1.00;;
47413;SDS011;33163;0.000;0.000;2022-09-17T08:51:01;4.88;;;1.08;;
47413;SDS011;33163;0.000;0.000;2022-09-17T08:53:38;4.10;;;0.77;;
47413;SDS011;33163;0.000;0.000;2022-09-17T08:56:15;3.42;;;1.05;;
47413;SDS011;33163;0.000;0.000;2022-09-17T09:01:37;7.00;;;1.25;;
47413;SDS011;33163;0.000;0.000;2022-09-17T09:07:22;6.07;;;0.93;;
47413;SDS011;33163;0.000;0.000;2022-09-17T09:09:54;4.95;;;1.00;;
47413;SDS011;33163;0.000;0.000;2022-09-17T09:12:30;4.57;;;1.40;;
47413;SDS011;33163;0.000;0.000;2022-09-17T09:15:00;4.45;;;0.98;;
47413;SDS011;33163;0.000;0.000;2022-09-17T09:17:33;2.97;;;1.10;;
47413;SDS011;33163;0.000;0.000;2022-09-17T09:20:03;3.80;;;1.10;;
47413;SDS011;33163;0.000;0.000;2022-09-17T09:22:39;2.88;;;0.90;;
47413;SDS011;33163;0.000;0.000;2022-09-17T09:25:16;8.15;;;1.00;;
47413;SDS011;33163;0.000;0.000;2022-09-17T09:27:50;4.57;;;0.88;;
47413;SDS011;33163;0.000;0.000;2022-09-17T09:30:29;2.63;;;0.90;;
47413;SDS011;33163;0.000;0.000;2022-09-17T09:33:03;5.13;;;1.38;;
47413;SDS011;33163;0.000;0.000;2022-09-17T09:35:38;4.63;;;0.85;;
47413;SDS011;33163;0.000;0.000;2022-09-17T09:38:11;5.75;;;0.75;;
47413;SDS011;33163;0.000;0.000;2022-09-17T09:40:45;6.72;;;1.45;;
47413;SDS011;33163;0.000;0.000;2022-09-17T09:43:18;6.32;;;0.60;;
47413;SDS011;33163;0.000;0.000;2022-09-17T09:48:52;3.95;;;0.77;;
47413;SDS011;33163;0.000;0.000;2022-09-17T09:51:29;6.82;;;0.85;;
47413;SDS011;33163;0.000;0.000;2022-09-17T09:54:05;10.05;;;1.05;;
47413;SDS011;33163;0.000;0.000;2022-09-17T09:56:46;6.05;;;1.10;;
47413;SDS011;33163;0.000;0.000;2022-09-17T09:59:20;5.18;;;1.23;;
47413;SDS011;33163;0.000;0.000;2022-09-17T10:01:47;11.32;;;1.23;;
47413;SDS011;33163;0.000;0.000;2022-09-17T10:04:16;6.78;;;1.10;;
47413;SDS011;33163;0.000;0.000;2022-09-17T10:06:46;4.15;;;1.10;;
47413;SDS011;33163;0.000;0.000;2022-09-17T10:09:14;6.60;;;1.10;;
47413;SDS011;33163;0.000;0.000;2022-09-17T10:11:57;3.15;;;0.70;;
47413;SDS011;33163;0.000;0.000;2022-09-17T10:14:27;2.67;;;1.30;;
47413;SDS011;33163;0.000;0.000;2022-09-17T10:17:13;6.97;;;1.70;;
47413;SDS011;33163;0.000;0.000;2022-09-17T10:19:43;7.47;;;1.20;;
47413;SDS011;33163;0.000;0.000;2022-09-17T10:22:23;7.82;;;1.00;;
47413;SDS011;33163;0.000;0.000;2022-09-17T10:24:55;5.40;;;1.00;;
47413;SDS011;33163;0.000;0.000;2022-09-17T10:27:24;10.73;;;1.70;;
47413;SDS011;33163;0.000;0.000;2022-09-17T10:29:59;12.40;;;1.50;;
47413;SDS011;33163;0.000;0.000;2022-09-17T10:32:28;8.88;;;1.80;;
47413;SDS011;33163;0.000;0.000;2022-09-17T10:35:03;6.82;;;1.73;;
47413;SDS011;33163;0.000;0.000;2022-09-17T10:37:33;12.93;;;1.48;;
47413;SDS011;33163;0.000;0.000;2022-09-17T10:40:23;7.43;;;1.40;;
47413;SDS011;33163;0.000;0.000;2022-09-17T10:45:44;7.60;;;1.40;;
47413;SDS011;33163;0.000;0.000;2022-09-17T10:48:22;6.60;;;1.60;;
47413;SDS011;33163;0.000;0.000;2022-09-17T10:50:50;7.25;;;1.60;;
47413;SDS011;33163;0.000;0.000;2022-09-17T10:53:19;4.32;;;1.00;;
47413;SDS011;33163;0.000;0.000;2022-09-17T10:55:48;12.55;;;1.65;;
47413;SDS011;33163;0.000;0.000;2022-09-17T10:58:23;6.53;;;1.42;;
47413;SDS011;33163;0.000;0.000;2022-09-17T11:01:05;4.22;;;1.38;;
47413;SDS011;33163;0.000;0.000;2022-09-17T11:03:52;6.47;;;1.48;;
47413;SDS011;33163;0.000;0.000;2022-09-17T11:06:59;11.43;;;1.80;;
47413;SDS011;33163;0.000;0.000;2022-09-17T11:10:06;8.65;;;1.55;;
47413;SDS011;33163;0.000;0.000;2022-09-17T11:12:39;8.43;;;2.05;;
47413;SDS011;33163;0.000;0.000;2022-09-17T11:15:29;9.35;;;1.90;;
47413;SDS011;33163;0.000;0.000;2022-09-17T11:18:14;9.05;;;1.83;;
47413;SDS011;33163;0.000;0.000;2022-09-17T11:21:12;7.18;;;1.50;;
47413;SDS011;33163;0.000;0.000;2022-09-17T11:24:14;11.07;;;2.80;;
47413;SDS011;33163;0.000;0.000;2022-09-17T11:27:15;8.40;;;1.77;;
47413;SDS011;33163;0.000;0.000;2022-09-17T11:30:04;11.00;;;2.42;;
47413;SDS011;33163;0.000;0.000;2022-09-17T11:32:39;10.27;;;2.58;;
47413;SDS011;33163;0.000;0.000;2022-09-17T11:35:18;8.73;;;1.88;;
47413;SDS011;33163;0.000;0.000;2022-09-17T11:37:49;13.50;;;2.08;;
47413;SDS011;33163;0.000;0.000;2022-09-17T11:40:21;10.18;;;1.95;;
47413;SDS011;33163;0.000;0.000;2022-09-17T11:43:04;9.35;;;2.10;;
47413;SDS011;33163;0.000;0.000;2022-09-17T11:45:40;12.15;;;1.80;;
47413;SDS011;33163;0.000;0.000;2022-09-17T11:48:15;9.63;;;2.05;;
47413;SDS011;33163;0.000;0.000;2022-09-17T11:50:45;15.43;;;2.20;;
47413;SDS011;33163;0.000;0.000;2022-09-17T11:53:16;14.00;;;2.42;;
47413;SDS011;33163;0.000;0.000;2022-09-17T11:55:50;10.43;;;1.77;;
47413;SDS011;33163;0.000;0.000;2022-09-17T11:58:23;13.55;;;2.33;;
47413;SDS011;33163;0.000;0.000;2022-09-17T12:00:53;12.20;;;2.10;;
47413;SDS011;33163;0.000;0.000;2022-09-17T12:03:27;23.08;;;3.05;;
47413;SDS011;33163;0.000;0.000;2022-09-17T12:05:57;9.20;;;1.98;;
47413;SDS011;33163;0.000;0.000;2022-09-17T12:08:31;10.38;;;1.98;;
47413;SDS011;33163;0.000;0.000;2022-09-17T12:11:06;11.50;;;2.50;;
47413;SDS011;33163;0.000;0.000;2022-09-17T12:13:39;9.60;;;1.73;;
47413;SDS011;33163;0.000;0.000;2022-09-17T12:16:11;15.43;;;2.40;;
47413;SDS011;33163;0.000;0.000;2022-09-17T12:18:45;12.40;;;2.30;;
47413;SDS011;33163;0.000;0.000;2022-09-17T12:21:18;11.23;;;2.00;;
47413;SDS011;33163;0.000;0.000;2022-09-17T12:23:51;11.27;;;2.47;;
47413;SDS011;33163;0.000;0.000;2022-09-17T12:26:32;10.40;;;2.22;;
47413;SDS011;33163;0.000;0.000;2022-09-17T12:29:11;10.70;;;2.00;;
47413;SDS011;33163;0.000;0.000;2022-09-17T12:31:56;13.90;;;2.33;;
47413;SDS011;33163;0.000;0.000;2022-09-17T12:34:32;8.20;;;1.88;;
47413;SDS011;33163;0.000;0.000;2022-09-17T12:37:08;8.45;;;1.83;;
47413;SDS011;33163;0.000;0.000;2022-09-17T12:42:39;7.53;;;2.30;;
47413;SDS011;33163;0.000;0.000;2022-09-17T12:48:15;10.90;;;2.30;;
47413;SDS011;33163;0.000;0.000;2022-09-17T12:50:57;9.55;;;2.03;;
47413;SDS011;33163;0.000;0.000;2022-09-17T12:53:34;5.45;;;1.48;;
47413;SDS011;33163;0.000;0.000;2022-09-17T12:56:09;7.72;;;2.13;;
47413;SDS011;33163;0.000;0.000;2022-09-17T13:01:44;8.52;;;1.58;;
47413;SDS011;33163;0.000;0.000;2022-09-17T13:07:26;12.32;;;2.17;;
47413;SDS011;33163;0.000;0.000;2022-09-17T13:10:23;5.05;;;1.55;;
47413;SDS011;33163;0.000;0.000;2022-09-17T13:13:08;9.38;;;2.13;;
47413;SDS011;33163;0.000;0.000;2022-09-17T13:15:51;7.85;;;1.80;;
47413;SDS011;33163;0.000;0.000;2022-09-17T13:18:25;14.68;;;2.53;;
47413;SDS011;33163;0.000;0.000;2022-09-17T13:20:59;12.77;;;2.03;;
47413;SDS011;33163;0.000;0.000;2022-09-17T13:23:32;11.93;;;2.22;;
47413;SDS011;33163;0.000;0.000;2022-09-17T13:26:03;8.02;;;1.90;;
47413;SDS011;33163;0.000;0.000;2022-09-17T13:28:38;8.85;;;1.88;;
47413;SDS011;33163;0.000;0.000;2022-09-17T13:31:08;4.00;;;1.45;;
47413;SDS011;33163;0.000;0.000;2022-09-17T13:33:49;6.88;;;1.63;;
47413;SDS011;33163;0.000;0.000;2022-09-17T13:36:34;9.15;;;1.95;;
47413;SDS011;33163;0.000;0.000;2022-09-17T13:39:38;5.70;;;1.15;;
47413;SDS011;33163;0.000;0.000;2022-09-17T13:42:12;8.75;;;2.00;;
47413;SDS011;33163;0.000;0.000;2022-09-17T13:44:43;8.95;;;1.80;;
47413;SDS011;33163;0.000;0.000;2022-09-17T13:47:15;8.85;;;2.45;;
47413;SDS011;33163;0.000;0.000;2022-09-17T13:49:54;8.15;;;1.73;;
47413;SDS011;33163;0.000;0.000;2022-09-17T13:52:35;13.02;;;2.30;;
47413;SDS011;33163;0.000;0.000;2022-09-17T13:55:05;9.02;;;1.70;;
47413;SDS011;33163;0.000;0.000;2022-09-17T13:57:44;13.13;;;2.08;;
47413;SDS011;33163;0.000;0.000;2022-09-17T14:09:43;6.70;;;1.70;;
47413;SDS011;33163;0.000;0.000;2022-09-17T14:15:33;11.23;;;2.05;;
47413;SDS011;33163;0.000;0.000;2022-09-17T14:18:31;12.35;;;1.65;;
47413;SDS011;33163;0.000;0.000;2022-09-17T14:21:05;11.93;;;2.17;;
47413;SDS011;33163;0.000;0.000;2022-09-17T14:23:41;5.07;;;1.75;;
47413;SDS011;33163;0.000;0.000;2022-09-17T14:26:11;17.88;;;2.05;;
47413;SDS011;33163;0.000;0.000;2022-09-17T14:28:44;12.90;;;2.33;;
47413;SDS011;33163;0.000;0.000;2022-09-17T14:31:16;10.45;;;2.08;;
47413;SDS011;33163;0.000;0.000;2022-09-17T14:33:45;15.02;;;1.90;;
47413;SDS011;33163;0.000;0.000;2022-09-17T14:36:15;14.68;;;1.95;;
47413;SDS011;33163;0.000;0.000;2022-09-17T14:38:45;10.27;;;1.98;;
47413;SDS011;33163;0.000;0.000;2022-09-17T14:41:17;12.13;;;2.08;;
47413;SDS011;33163;0.000;0.000;2022-09-17T14:43:47;7.90;;;2.25;;
47413;SDS011;33163;0.000;0.000;2022-09-17T14:46:18;11.90;;;1.77;;
47413;SDS011;33163;0.000;0.000;2022-09-17T14:48:48;10.43;;;2.05;;
47413;SDS011;33163;0.000;0.000;2022-09-17T14:51:27;9.55;;;2.25;;
47413;SDS011;33163;0.000;0.000;2022-09-17T14:56:48;8.40;;;1.83;;
47413;SDS011;33163;0.000;0.000;2022-09-17T14:59:21;6.95;;;2.00;;
47413;SDS011;33163;0.000;0.000;2022-09-17T15:01:52;6.20;;;2.00;;
47413;SDS011;33163;0.000;0.000;2022-09-17T15:04:20;5.70;;;1.70;;
47413;SDS011;33163;0.000;0.000;2022-09-17T15:06:49;8.48;;;1.58;;
47413;SDS011;33163;0.000;0.000;2022-09-17T15:09:17;8.32;;;2.05;;
47413;SDS011;33163;0.000;0.000;2022-09-17T15:11:47;6.45;;;1.75;;
47413;SDS011;33163;0.000;0.000;2022-09-17T15:14:17;7.93;;;1.80;;
47413;SDS011;33163;0.000;0.000;2022-09-17T15:16:46;13.98;;;1.92;;
47413;SDS011;33163;0.000;0.000;2022-09-17T15:19:17;9.40;;;2.20;;
47413;SDS011;33163;0.000;0.000;2022-09-17T15:21:50;9.35;;;1.70;;
47413;SDS011;33163;0.000;0.000;2022-09-17T15:24:20;10.55;;;1.73;;
47413;SDS011;33163;0.000;0.000;2022-09-17T15:26:54;6.88;;;2.00;;
47413;SDS011;33163;0.000;0.000;2022-09-17T15:29:25;10.07;;;1.67;;
47413;SDS011;33163;0.000;0.000;2022-09-17T15:31:55;10.90;;;2.05;;
47413;SDS011;33163;0.000;0.000;2022-09-17T15:34:22;9.98;;;2.05;;
47413;SDS011;33163;0.000;0.000;2022-09-17T15:37:03;12.77;;;1.83;;
47413;SDS011;33163;0.000;0.000;2022-09-17T15:39:36;6.93;;;1.90;;
47413;SDS011;33163;0.000;0.000;2022-09-17T15:42:12;10.65;;;1.77;;
47413;SDS011;33163;0.000;0.000;2022-09-17T15:44:42;6.45;;;2.10;;
47413;SDS011;33163;0.000;0.000;2022-09-17T15:50:03;9.27;;;1.80;;
47413;SDS011;33163;0.000;0.000;2022-09-17T15:52:38;10.00;;;1.85;;
47413;SDS011;33163;0.000;0.000;2022-09-17T15:57:59;5.90;;;1.77;;
47413;SDS011;33163;0.000;0.000;2022-09-17T16:00:28;8.18;;;1.58;;
47413;SDS011;33163;0.000;0.000;2022-09-17T16:02:55;11.60;;;1.98;;
47413;SDS011;33163;0.000;0.000;2022-09-17T16:08:18;6.10;;;1.50;;
47413;SDS011;33163;0.000;0.000;2022-09-17T16:10:49;4.88;;;1.60;;
47413;SDS011;33163;0.000;0.000;2022-09-17T16:13:17;11.85;;;1.75;;
47413;SDS011;33163;0.000;0.000;2022-09-17T16:15:44;9.57;;;1.73;;
47413;SDS011;33163;0.000;0.000;2022-09-17T16:18:12;8.77;;;1.67;;
47413;SDS011;33163;0.000;0.000;2022-09-17T16:20:40;10.38;;;1.83;;